sensor_id;sensor_type;location;lat;lon;timestamp;P1;durP1;ratioP1;P2;durP2;ratioP2
46006;SDS011;31738;50.188;8.524;2022-08-19T00:01:32;22.52;;;14.45;;
46006;SDS011;31738;50.188;8.524;2022-08-19T00:03:59;22.08;;;14.02;;
46006;SDS011;31738;50.188;8.524;2022-08-19T00:06:28;22.73;;;14.13;;
46006;SDS011;31738;50.188;8.524;2022-08-19T00:08:54;19.85;;;13.75;;
46006;SDS011;31738;50.188;8.524;2022-08-19T00:11:20;22.67;;;13.98;;
46006;SDS011;31738;50.188;8.524;2022-08-19T00:13:46;23.25;;;14.18;;
46006;SDS011;31738;50.188;8.524;2022-08-19T00:16:14;22.17;;;13.30;;
46006;SDS011;31738;50.188;8.524;2022-08-19T00:18:40;19.48;;;13.48;;
46006;SDS011;31738;50.188;8.524;2022-08-19T00:21:05;23.45;;;14.20;;
46006;SDS011;31738;50.188;8.524;2022-08-19T00:23:34;20.95;;;13.55;;
46006;SDS011;31738;50.188;8.524;2022-08-19T00:26:02;19.92;;;12.88;;
46006;SDS011;31738;50.188;8.524;2022-08-19T00:28:30;21.63;;;13.57;;
46006;SDS011;31738;50.188;8.524;2022-08-19T00:30:57;22.23;;;13.65;;
46006;SDS011;31738;50.188;8.524;2022-08-19T00:33:23;19.35;;;13.55;;
46006;SDS011;31738;50.188;8.524;2022-08-19T00:35:49;18.25;;;12.73;;
46006;SDS011;31738;50.188;8.524;2022-08-19T00:38:14;18.73;;;12.38;;
46006;SDS011;31738;50.188;8.524;2022-08-19T00:40:42;18.92;;;12.32;;
46006;SDS011;31738;50.188;8.524;2022-08-19T00:43:11;22.60;;;13.77;;
46006;SDS011;31738;50.188;8.524;2022-08-19T00:45:38;19.08;;;11.93;;
46006;SDS011;31738;50.188;8.524;2022-08-19T00:48:06;20.08;;;12.65;;
46006;SDS011;31738;50.188;8.524;2022-08-19T00:50:32;22.75;;;13.60;;
46006;SDS011;31738;50.188;8.524;2022-08-19T00:52:59;19.85;;;12.77;;
46006;SDS011;31738;50.188;8.524;2022-08-19T00:55:29;17.10;;;12.23;;
46006;SDS011;31738;50.188;8.524;2022-08-19T00:58:05;17.67;;;11.80;;
46006;SDS011;31738;50.188;8.524;2022-08-19T01:00:35;21.17;;;12.82;;
46006;SDS011;31738;50.188;8.524;2022-08-19T01:03:03;18.83;;;11.95;;
46006;SDS011;31738;50.188;8.524;2022-08-19T01:05:30;17.08;;;11.50;;
46006;SDS011;31738;50.188;8.524;2022-08-19T01:07:56;16.13;;;10.60;;
46006;SDS011;31738;50.188;8.524;2022-08-19T01:10:25;15.93;;;11.80;;
46006;SDS011;31738;50.188;8.524;2022-08-19T01:12:54;17.15;;;11.65;;
46006;SDS011;31738;50.188;8.524;2022-08-19T01:15:26;18.55;;;11.80;;
46006;SDS011;31738;50.188;8.524;2022-08-19T01:17:55;15.95;;;12.10;;
46006;SDS011;31738;50.188;8.524;2022-08-19T01:20:24;18.65;;;12.20;;
46006;SDS011;31738;50.188;8.524;2022-08-19T01:22:51;19.00;;;12.02;;
46006;SDS011;31738;50.188;8.524;2022-08-19T01:25:20;15.80;;;11.27;;
46006;SDS011;31738;50.188;8.524;2022-08-19T01:27:49;17.30;;;11.95;;
46006;SDS011;31738;50.188;8.524;2022-08-19T01:30:18;16.15;;;10.85;;
46006;SDS011;31738;50.188;8.524;2022-08-19T01:32:49;19.80;;;11.68;;
46006;SDS011;31738;50.188;8.524;2022-08-19T01:35:16;19.27;;;11.75;;
46006;SDS011;31738;50.188;8.524;2022-08-19T01:37:47;17.00;;;11.23;;
46006;SDS011;31738;50.188;8.524;2022-08-19T01:40:18;15.90;;;11.02;;
46006;SDS011;31738;50.188;8.524;2022-08-19T01:42:48;18.55;;;12.07;;
46006;SDS011;31738;50.188;8.524;2022-08-19T01:45:15;20.05;;;11.40;;
46006;SDS011;31738;50.188;8.524;2022-08-19T01:47:41;18.50;;;11.23;;
46006;SDS011;31738;50.188;8.524;2022-08-19T01:50:07;15.20;;;11.68;;
46006;SDS011;31738;50.188;8.524;2022-08-19T01:52:36;19.17;;;12.10;;
46006;SDS011;31738;50.188;8.524;2022-08-19T01:55:03;17.40;;;11.55;;
46006;SDS011;31738;50.188;8.524;2022-08-19T01:57:30;18.27;;;11.60;;
46006;SDS011;31738;50.188;8.524;2022-08-19T01:59:56;17.98;;;11.40;;
46006;SDS011;31738;50.188;8.524;2022-08-19T02:02:21;18.83;;;10.68;;
46006;SDS011;31738;50.188;8.524;2022-08-19T02:04:47;16.83;;;11.52;;
46006;SDS011;31738;50.188;8.524;2022-08-19T02:07:13;19.80;;;12.88;;
46006;SDS011;31738;50.188;8.524;2022-08-19T02:09:38;15.20;;;10.98;;
46006;SDS011;31738;50.188;8.524;2022-08-19T02:12:04;16.33;;;10.60;;
46006;SDS011;31738;50.188;8.524;2022-08-19T02:14:33;16.05;;;11.35;;
46006;SDS011;31738;50.188;8.524;2022-08-19T02:16:59;15.02;;;9.90;;
46006;SDS011;31738;50.188;8.524;2022-08-19T02:19:25;16.70;;;10.48;;
46006;SDS011;31738;50.188;8.524;2022-08-19T02:21:51;15.25;;;9.75;;
46006;SDS011;31738;50.188;8.524;2022-08-19T02:24:16;18.40;;;10.80;;
46006;SDS011;31738;50.188;8.524;2022-08-19T02:26:42;19.27;;;11.38;;
46006;SDS011;31738;50.188;8.524;2022-08-19T02:29:09;15.93;;;9.75;;
46006;SDS011;31738;50.188;8.524;2022-08-19T02:31:34;16.40;;;9.82;;
46006;SDS011;31738;50.188;8.524;2022-08-19T02:34:00;16.15;;;10.45;;
46006;SDS011;31738;50.188;8.524;2022-08-19T02:36:25;16.80;;;10.23;;
46006;SDS011;31738;50.188;8.524;2022-08-19T02:38:53;15.38;;;10.18;;
46006;SDS011;31738;50.188;8.524;2022-08-19T02:41:21;16.05;;;9.57;;
46006;SDS011;31738;50.188;8.524;2022-08-19T02:43:53;14.07;;;10.40;;
46006;SDS011;31738;50.188;8.524;2022-08-19T02:46:22;16.65;;;10.27;;
46006;SDS011;31738;50.188;8.524;2022-08-19T02:48:51;15.98;;;8.98;;
46006;SDS011;31738;50.188;8.524;2022-08-19T02:51:18;16.23;;;9.48;;
46006;SDS011;31738;50.188;8.524;2022-08-19T02:53:46;15.10;;;10.07;;
46006;SDS011;31738;50.188;8.524;2022-08-19T02:56:11;17.55;;;9.90;;
46006;SDS011;31738;50.188;8.524;2022-08-19T02:58:37;12.27;;;8.93;;
46006;SDS011;31738;50.188;8.524;2022-08-19T03:01:03;15.40;;;10.38;;
46006;SDS011;31738;50.188;8.524;2022-08-19T03:03:28;16.65;;;9.60;;
46006;SDS011;31738;50.188;8.524;2022-08-19T03:06:11;16.60;;;10.25;;
46006;SDS011;31738;50.188;8.524;2022-08-19T03:08:40;13.75;;;9.38;;
46006;SDS011;31738;50.188;8.524;2022-08-19T03:11:12;16.13;;;9.18;;
46006;SDS011;31738;50.188;8.524;2022-08-19T03:13:39;12.73;;;8.60;;
46006;SDS011;31738;50.188;8.524;2022-08-19T03:16:04;14.10;;;9.23;;
46006;SDS011;31738;50.188;8.524;2022-08-19T03:18:30;14.82;;;9.35;;
46006;SDS011;31738;50.188;8.524;2022-08-19T03:20:56;15.30;;;9.20;;
46006;SDS011;31738;50.188;8.524;2022-08-19T03:23:21;10.90;;;7.78;;
46006;SDS011;31738;50.188;8.524;2022-08-19T03:25:51;12.77;;;9.10;;
46006;SDS011;31738;50.188;8.524;2022-08-19T03:28:18;14.32;;;7.95;;
46006;SDS011;31738;50.188;8.524;2022-08-19T03:30:54;15.43;;;9.43;;
46006;SDS011;31738;50.188;8.524;2022-08-19T03:33:25;15.38;;;8.40;;
46006;SDS011;31738;50.188;8.524;2022-08-19T03:36:01;14.75;;;9.07;;
46006;SDS011;31738;50.188;8.524;2022-08-19T03:38:27;12.20;;;9.15;;
46006;SDS011;31738;50.188;8.524;2022-08-19T03:40:53;12.35;;;8.75;;
46006;SDS011;31738;50.188;8.524;2022-08-19T03:43:18;12.05;;;8.43;;
46006;SDS011;31738;50.188;8.524;2022-08-19T03:45:44;13.77;;;8.55;;
46006;SDS011;31738;50.188;8.524;2022-08-19T03:48:09;13.38;;;8.65;;
46006;SDS011;31738;50.188;8.524;2022-08-19T03:50:38;14.40;;;8.35;;
46006;SDS011;31738;50.188;8.524;2022-08-19T03:53:05;13.10;;;8.45;;
46006;SDS011;31738;50.188;8.524;2022-08-19T03:55:31;12.57;;;8.25;;
46006;SDS011;31738;50.188;8.524;2022-08-19T03:57:56;12.48;;;8.52;;
46006;SDS011;31738;50.188;8.524;2022-08-19T04:00:22;11.75;;;7.80;;
46006;SDS011;31738;50.188;8.524;2022-08-19T04:02:47;13.65;;;8.57;;
46006;SDS011;31738;50.188;8.524;2022-08-19T04:05:13;13.95;;;8.32;;
46006;SDS011;31738;50.188;8.524;2022-08-19T04:07:39;9.80;;;7.40;;
46006;SDS011;31738;50.188;8.524;2022-08-19T04:10:04;10.68;;;8.00;;
46006;SDS011;31738;50.188;8.524;2022-08-19T04:12:30;12.57;;;8.00;;
46006;SDS011;31738;50.188;8.524;2022-08-19T04:14:56;12.27;;;7.75;;
46006;SDS011;31738;50.188;8.524;2022-08-19T04:17:21;10.23;;;7.80;;
46006;SDS011;31738;50.188;8.524;2022-08-19T04:19:47;10.07;;;7.32;;
46006;SDS011;31738;50.188;8.524;2022-08-19T04:22:12;11.25;;;7.60;;
46006;SDS011;31738;50.188;8.524;2022-08-19T04:24:38;14.57;;;8.30;;
46006;SDS011;31738;50.188;8.524;2022-08-19T04:27:03;12.40;;;7.35;;
46006;SDS011;31738;50.188;8.524;2022-08-19T04:29:31;11.60;;;7.40;;
46006;SDS011;31738;50.188;8.524;2022-08-19T04:31:57;10.88;;;7.82;;
46006;SDS011;31738;50.188;8.524;2022-08-19T04:34:24;10.50;;;7.53;;
46006;SDS011;31738;50.188;8.524;2022-08-19T04:36:55;10.70;;;7.47;;
46006;SDS011;31738;50.188;8.524;2022-08-19T04:39:23;9.13;;;7.47;;
46006;SDS011;31738;50.188;8.524;2022-08-19T04:42:11;10.98;;;6.95;;
46006;SDS011;31738;50.188;8.524;2022-08-19T04:44:56;12.38;;;6.78;;
46006;SDS011;31738;50.188;8.524;2022-08-19T04:47:22;10.95;;;6.95;;
46006;SDS011;31738;50.188;8.524;2022-08-19T04:49:47;9.07;;;6.75;;
46006;SDS011;31738;50.188;8.524;2022-08-19T04:52:13;8.43;;;6.90;;
46006;SDS011;31738;50.188;8.524;2022-08-19T04:54:39;8.18;;;6.20;;
46006;SDS011;31738;50.188;8.524;2022-08-19T04:57:05;11.43;;;7.10;;
46006;SDS011;31738;50.188;8.524;2022-08-19T04:59:35;10.55;;;6.47;;
46006;SDS011;31738;50.188;8.524;2022-08-19T05:02:01;9.35;;;6.45;;
46006;SDS011;31738;50.188;8.524;2022-08-19T05:04:28;9.73;;;6.32;;
46006;SDS011;31738;50.188;8.524;2022-08-19T05:06:56;7.63;;;5.80;;
46006;SDS011;31738;50.188;8.524;2022-08-19T05:09:21;7.60;;;5.45;;
46006;SDS011;31738;50.188;8.524;2022-08-19T05:11:47;10.13;;;5.75;;
46006;SDS011;31738;50.188;8.524;2022-08-19T05:14:13;9.05;;;5.10;;
46006;SDS011;31738;50.188;8.524;2022-08-19T05:16:39;8.88;;;6.03;;
46006;SDS011;31738;50.188;8.524;2022-08-19T05:19:05;8.40;;;6.03;;
46006;SDS011;31738;50.188;8.524;2022-08-19T05:21:49;8.32;;;5.72;;
46006;SDS011;31738;50.188;8.524;2022-08-19T05:24:33;8.75;;;5.45;;
46006;SDS011;31738;50.188;8.524;2022-08-19T05:27:00;7.85;;;5.55;;
46006;SDS011;31738;50.188;8.524;2022-08-19T05:29:27;11.00;;;6.05;;
46006;SDS011;31738;50.188;8.524;2022-08-19T05:31:57;7.80;;;5.45;;
46006;SDS011;31738;50.188;8.524;2022-08-19T05:34:24;8.77;;;5.32;;
46006;SDS011;31738;50.188;8.524;2022-08-19T05:36:52;7.22;;;5.68;;
46006;SDS011;31738;50.188;8.524;2022-08-19T05:39:23;5.65;;;5.05;;
46006;SDS011;31738;50.188;8.524;2022-08-19T05:41:52;8.48;;;5.43;;
46006;SDS011;31738;50.188;8.524;2022-08-19T05:44:23;10.02;;;6.15;;
46006;SDS011;31738;50.188;8.524;2022-08-19T05:46:50;9.35;;;5.80;;
46006;SDS011;31738;50.188;8.524;2022-08-19T05:49:22;6.80;;;5.22;;
46006;SDS011;31738;50.188;8.524;2022-08-19T05:51:48;9.07;;;5.15;;
46006;SDS011;31738;50.188;8.524;2022-08-19T05:54:14;7.63;;;4.93;;
46006;SDS011;31738;50.188;8.524;2022-08-19T05:56:40;6.93;;;4.75;;
46006;SDS011;31738;50.188;8.524;2022-08-19T05:59:07;5.40;;;4.75;;
46006;SDS011;31738;50.188;8.524;2022-08-19T06:01:39;6.75;;;4.53;;
46006;SDS011;31738;50.188;8.524;2022-08-19T06:04:06;6.60;;;4.95;;
46006;SDS011;31738;50.188;8.524;2022-08-19T06:06:32;7.72;;;4.88;;
46006;SDS011;31738;50.188;8.524;2022-08-19T06:09:05;6.95;;;5.03;;
46006;SDS011;31738;50.188;8.524;2022-08-19T06:11:37;5.15;;;4.60;;
46006;SDS011;31738;50.188;8.524;2022-08-19T06:14:09;7.10;;;4.80;;
46006;SDS011;31738;50.188;8.524;2022-08-19T06:16:39;6.78;;;4.75;;
46006;SDS011;31738;50.188;8.524;2022-08-19T06:19:07;6.53;;;4.63;;
46006;SDS011;31738;50.188;8.524;2022-08-19T06:21:35;7.32;;;4.30;;
46006;SDS011;31738;50.188;8.524;2022-08-19T06:24:03;7.10;;;4.60;;
46006;SDS011;31738;50.188;8.524;2022-08-19T06:26:30;5.72;;;4.63;;
46006;SDS011;31738;50.188;8.524;2022-08-19T06:28:56;4.55;;;3.95;;
46006;SDS011;31738;50.188;8.524;2022-08-19T06:31:26;6.82;;;4.55;;
46006;SDS011;31738;50.188;8.524;2022-08-19T06:33:53;6.38;;;4.18;;
46006;SDS011;31738;50.188;8.524;2022-08-19T06:38:49;5.30;;;4.10;;
46006;SDS011;31738;50.188;8.524;2022-08-19T06:41:15;6.03;;;4.15;;
46006;SDS011;31738;50.188;8.524;2022-08-19T06:43:40;5.97;;;4.10;;
46006;SDS011;31738;50.188;8.524;2022-08-19T06:46:14;5.53;;;3.90;;
46006;SDS011;31738;50.188;8.524;2022-08-19T06:48:41;6.00;;;4.15;;
46006;SDS011;31738;50.188;8.524;2022-08-19T06:51:07;5.78;;;4.25;;
46006;SDS011;31738;50.188;8.524;2022-08-19T06:53:32;5.47;;;4.03;;
46006;SDS011;31738;50.188;8.524;2022-08-19T06:55:58;7.63;;;4.15;;
46006;SDS011;31738;50.188;8.524;2022-08-19T06:58:29;6.93;;;3.92;;
46006;SDS011;31738;50.188;8.524;2022-08-19T07:00:59;7.22;;;4.20;;
46006;SDS011;31738;50.188;8.524;2022-08-19T07:03:27;5.18;;;4.13;;
46006;SDS011;31738;50.188;8.524;2022-08-19T07:05:54;5.50;;;4.38;;
46006;SDS011;31738;50.188;8.524;2022-08-19T07:08:19;4.85;;;4.15;;
46006;SDS011;31738;50.188;8.524;2022-08-19T07:10:45;8.68;;;4.70;;
46006;SDS011;31738;50.188;8.524;2022-08-19T07:13:11;8.30;;;4.85;;
46006;SDS011;31738;50.188;8.524;2022-08-19T07:15:37;5.28;;;3.97;;
46006;SDS011;31738;50.188;8.524;2022-08-19T07:18:02;7.30;;;4.72;;
46006;SDS011;31738;50.188;8.524;2022-08-19T07:20:28;7.13;;;4.40;;
46006;SDS011;31738;50.188;8.524;2022-08-19T07:22:54;6.45;;;4.85;;
46006;SDS011;31738;50.188;8.524;2022-08-19T07:25:19;7.13;;;4.18;;
46006;SDS011;31738;50.188;8.524;2022-08-19T07:27:48;5.60;;;4.75;;
46006;SDS011;31738;50.188;8.524;2022-08-19T07:30:16;6.88;;;5.28;;
46006;SDS011;31738;50.188;8.524;2022-08-19T07:32:42;7.38;;;5.25;;
46006;SDS011;31738;50.188;8.524;2022-08-19T07:35:08;6.00;;;5.10;;
46006;SDS011;31738;50.188;8.524;2022-08-19T07:37:34;7.25;;;5.90;;
46006;SDS011;31738;50.188;8.524;2022-08-19T07:40:03;7.70;;;6.40;;
46006;SDS011;31738;50.188;8.524;2022-08-19T07:42:30;8.93;;;4.85;;
46006;SDS011;31738;50.188;8.524;2022-08-19T07:44:55;6.60;;;4.70;;
46006;SDS011;31738;50.188;8.524;2022-08-19T07:47:21;7.97;;;4.57;;
46006;SDS011;31738;50.188;8.524;2022-08-19T07:49:47;7.32;;;5.70;;
46006;SDS011;31738;50.188;8.524;2022-08-19T07:52:13;6.15;;;5.55;;
46006;SDS011;31738;50.188;8.524;2022-08-19T07:54:39;9.27;;;5.32;;
46006;SDS011;31738;50.188;8.524;2022-08-19T07:57:06;6.85;;;4.90;;
46006;SDS011;31738;50.188;8.524;2022-08-19T07:59:32;8.40;;;6.43;;
46006;SDS011;31738;50.188;8.524;2022-08-19T08:01:58;11.35;;;6.20;;
46006;SDS011;31738;50.188;8.524;2022-08-19T08:04:25;8.45;;;6.43;;
46006;SDS011;31738;50.188;8.524;2022-08-19T08:07:10;9.05;;;6.20;;
46006;SDS011;31738;50.188;8.524;2022-08-19T08:09:55;8.00;;;5.23;;
46006;SDS011;31738;50.188;8.524;2022-08-19T08:12:22;7.30;;;5.68;;
46006;SDS011;31738;50.188;8.524;2022-08-19T08:14:55;6.82;;;5.32;;
46006;SDS011;31738;50.188;8.524;2022-08-19T08:17:24;10.10;;;6.13;;
46006;SDS011;31738;50.188;8.524;2022-08-19T08:19:51;10.40;;;6.28;;
46006;SDS011;31738;50.188;8.524;2022-08-19T08:22:18;6.60;;;5.75;;
46006;SDS011;31738;50.188;8.524;2022-08-19T08:25:09;9.48;;;6.55;;
46006;SDS011;31738;50.188;8.524;2022-08-19T08:27:37;8.10;;;6.10;;
46006;SDS011;31738;50.188;8.524;2022-08-19T08:30:12;8.68;;;5.82;;
46006;SDS011;31738;50.188;8.524;2022-08-19T08:32:44;6.68;;;5.47;;
46006;SDS011;31738;50.188;8.524;2022-08-19T08:35:16;10.35;;;6.28;;
46006;SDS011;31738;50.188;8.524;2022-08-19T08:37:45;8.40;;;5.60;;
46006;SDS011;31738;50.188;8.524;2022-08-19T08:42:49;7.13;;;5.57;;
46006;SDS011;31738;50.188;8.524;2022-08-19T08:45:23;9.00;;;6.00;;
46006;SDS011;31738;50.188;8.524;2022-08-19T08:47:50;9.35;;;6.72;;
46006;SDS011;31738;50.188;8.524;2022-08-19T08:50:38;8.13;;;6.68;;
46006;SDS011;31738;50.188;8.524;2022-08-19T08:53:07;7.70;;;6.88;;
46006;SDS011;31738;50.188;8.524;2022-08-19T08:55:34;9.25;;;6.45;;
46006;SDS011;31738;50.188;8.524;2022-08-19T08:58:09;10.32;;;7.78;;
46006;SDS011;31738;50.188;8.524;2022-08-19T09:00:43;10.50;;;7.85;;
46006;SDS011;31738;50.188;8.524;2022-08-19T09:03:18;11.00;;;8.00;;
46006;SDS011;31738;50.188;8.524;2022-08-19T09:05:59;11.88;;;8.85;;
46006;SDS011;31738;50.188;8.524;2022-08-19T09:08:30;11.38;;;9.10;;
46006;SDS011;31738;50.188;8.524;2022-08-19T09:11:06;12.13;;;8.18;;
46006;SDS011;31738;50.188;8.524;2022-08-19T09:16:18;11.05;;;8.43;;
46006;SDS011;31738;50.188;8.524;2022-08-19T09:18:47;10.63;;;7.40;;
46006;SDS011;31738;50.188;8.524;2022-08-19T09:21:17;10.32;;;7.57;;
46006;SDS011;31738;50.188;8.524;2022-08-19T09:23:43;10.13;;;7.88;;
46006;SDS011;31738;50.188;8.524;2022-08-19T09:26:14;9.32;;;7.40;;
46006;SDS011;31738;50.188;8.524;2022-08-19T09:28:41;10.90;;;7.47;;
46006;SDS011;31738;50.188;8.524;2022-08-19T09:31:15;9.57;;;7.50;;
46006;SDS011;31738;50.188;8.524;2022-08-19T09:33:42;10.90;;;8.48;;
46006;SDS011;31738;50.188;8.524;2022-08-19T09:36:11;8.55;;;7.63;;
46006;SDS011;31738;50.188;8.524;2022-08-19T09:38:39;12.52;;;7.95;;
46006;SDS011;31738;50.188;8.524;2022-08-19T09:41:07;10.68;;;8.13;;
46006;SDS011;31738;50.188;8.524;2022-08-19T09:43:35;8.98;;;7.45;;
46006;SDS011;31738;50.188;8.524;2022-08-19T09:46:02;10.60;;;8.60;;
46006;SDS011;31738;50.188;8.524;2022-08-19T09:48:30;10.18;;;7.95;;
46006;SDS011;31738;50.188;8.524;2022-08-19T09:51:04;11.70;;;8.55;;
46006;SDS011;31738;50.188;8.524;2022-08-19T09:53:33;11.25;;;8.75;;
46006;SDS011;31738;50.188;8.524;2022-08-19T09:55:59;10.10;;;8.35;;
46006;SDS011;31738;50.188;8.524;2022-08-19T09:58:25;11.10;;;8.85;;
46006;SDS011;31738;50.188;8.524;2022-08-19T10:00:53;12.65;;;9.85;;
46006;SDS011;31738;50.188;8.524;2022-08-19T10:03:19;12.10;;;9.63;;
46006;SDS011;31738;50.188;8.524;2022-08-19T10:05:45;11.38;;;8.70;;
46006;SDS011;31738;50.188;8.524;2022-08-19T10:08:13;11.75;;;8.82;;
46006;SDS011;31738;50.188;8.524;2022-08-19T10:10:40;11.70;;;9.40;;
46006;SDS011;31738;50.188;8.524;2022-08-19T10:13:08;11.00;;;8.65;;
46006;SDS011;31738;50.188;8.524;2022-08-19T10:15:34;11.50;;;8.85;;
46006;SDS011;31738;50.188;8.524;2022-08-19T10:17:59;10.88;;;9.40;;
46006;SDS011;31738;50.188;8.524;2022-08-19T10:20:25;14.30;;;9.77;;
46006;SDS011;31738;50.188;8.524;2022-08-19T10:22:50;12.48;;;10.18;;
46006;SDS011;31738;50.188;8.524;2022-08-19T10:25:16;13.00;;;9.85;;
46006;SDS011;31738;50.188;8.524;2022-08-19T10:27:42;10.38;;;9.25;;
46006;SDS011;31738;50.188;8.524;2022-08-19T10:30:08;11.05;;;9.30;;
46006;SDS011;31738;50.188;8.524;2022-08-19T10:32:34;11.73;;;9.50;;
46006;SDS011;31738;50.188;8.524;2022-08-19T10:35:00;13.77;;;9.80;;
46006;SDS011;31738;50.188;8.524;2022-08-19T10:37:27;11.82;;;9.05;;
46006;SDS011;31738;50.188;8.524;2022-08-19T10:39:55;11.18;;;9.10;;
46006;SDS011;31738;50.188;8.524;2022-08-19T10:42:21;12.68;;;9.73;;
46006;SDS011;31738;50.188;8.524;2022-08-19T10:44:46;11.63;;;8.85;;
46006;SDS011;31738;50.188;8.524;2022-08-19T10:47:12;12.48;;;9.77;;
46006;SDS011;31738;50.188;8.524;2022-08-19T10:49:37;10.57;;;9.50;;
46006;SDS011;31738;50.188;8.524;2022-08-19T10:52:23;11.02;;;9.85;;
46006;SDS011;31738;50.188;8.524;2022-08-19T10:55:01;12.38;;;9.25;;
46006;SDS011;31738;50.188;8.524;2022-08-19T10:57:47;14.65;;;10.57;;
46006;SDS011;31738;50.188;8.524;2022-08-19T11:00:13;12.57;;;10.90;;
46006;SDS011;31738;50.188;8.524;2022-08-19T11:02:39;14.70;;;11.30;;
46006;SDS011;31738;50.188;8.524;2022-08-19T11:05:05;11.68;;;9.90;;
46006;SDS011;31738;50.188;8.524;2022-08-19T11:07:32;12.85;;;10.70;;
46006;SDS011;31738;50.188;8.524;2022-08-19T11:09:57;12.32;;;9.73;;
46006;SDS011;31738;50.188;8.524;2022-08-19T11:12:23;11.60;;;10.40;;
46006;SDS011;31738;50.188;8.524;2022-08-19T11:14:49;16.45;;;11.00;;
46006;SDS011;31738;50.188;8.524;2022-08-19T11:17:15;12.85;;;10.05;;
46006;SDS011;31738;50.188;8.524;2022-08-19T11:19:41;13.50;;;11.45;;
46006;SDS011;31738;50.188;8.524;2022-08-19T11:22:10;13.35;;;11.43;;
46006;SDS011;31738;50.188;8.524;2022-08-19T11:24:35;13.02;;;10.52;;
46006;SDS011;31738;50.188;8.524;2022-08-19T11:27:03;11.82;;;10.55;;
46006;SDS011;31738;50.188;8.524;2022-08-19T11:29:31;14.10;;;10.43;;
46006;SDS011;31738;50.188;8.524;2022-08-19T11:31:57;12.88;;;10.55;;
46006;SDS011;31738;50.188;8.524;2022-08-19T11:34:24;12.05;;;10.10;;
46006;SDS011;31738;50.188;8.524;2022-08-19T11:36:52;10.45;;;9.35;;
46006;SDS011;31738;50.188;8.524;2022-08-19T11:39:20;9.93;;;8.63;;
46006;SDS011;31738;50.188;8.524;2022-08-19T11:41:46;11.10;;;9.07;;
46006;SDS011;31738;50.188;8.524;2022-08-19T11:44:12;10.63;;;9.40;;
46006;SDS011;31738;50.188;8.524;2022-08-19T11:46:39;14.85;;;10.13;;
46006;SDS011;31738;50.188;8.524;2022-08-19T11:49:10;9.88;;;8.88;;
46006;SDS011;31738;50.188;8.524;2022-08-19T11:51:36;10.20;;;9.13;;
46006;SDS011;31738;50.188;8.524;2022-08-19T11:54:03;8.88;;;7.97;;
46006;SDS011;31738;50.188;8.524;2022-08-19T11:56:31;10.50;;;8.70;;
46006;SDS011;31738;50.188;8.524;2022-08-19T11:58:56;9.88;;;8.73;;
46006;SDS011;31738;50.188;8.524;2022-08-19T12:01:23;11.63;;;8.90;;
46006;SDS011;31738;50.188;8.524;2022-08-19T12:03:50;9.80;;;8.77;;
46006;SDS011;31738;50.188;8.524;2022-08-19T12:06:19;10.82;;;8.80;;
46006;SDS011;31738;50.188;8.524;2022-08-19T12:08:50;10.25;;;9.13;;
46006;SDS011;31738;50.188;8.524;2022-08-19T12:11:17;10.43;;;7.53;;
46006;SDS011;31738;50.188;8.524;2022-08-19T12:13:43;10.00;;;8.30;;
46006;SDS011;31738;50.188;8.524;2022-08-19T12:16:14;9.50;;;7.65;;
46006;SDS011;31738;50.188;8.524;2022-08-19T12:18:42;9.10;;;7.40;;
46006;SDS011;31738;50.188;8.524;2022-08-19T12:21:15;9.35;;;7.40;;
46006;SDS011;31738;50.188;8.524;2022-08-19T12:23:42;8.25;;;6.47;;
46006;SDS011;31738;50.188;8.524;2022-08-19T12:26:10;7.55;;;6.65;;
46006;SDS011;31738;50.188;8.524;2022-08-19T12:28:36;8.68;;;6.90;;
46006;SDS011;31738;50.188;8.524;2022-08-19T12:31:02;7.40;;;6.55;;
46006;SDS011;31738;50.188;8.524;2022-08-19T12:33:28;7.25;;;6.55;;
46006;SDS011;31738;50.188;8.524;2022-08-19T12:35:54;7.38;;;6.68;;
46006;SDS011;31738;50.188;8.524;2022-08-19T12:38:20;6.65;;;5.68;;
46006;SDS011;31738;50.188;8.524;2022-08-19T12:40:49;7.32;;;6.57;;
46006;SDS011;31738;50.188;8.524;2022-08-19T12:43:17;7.53;;;6.07;;
46006;SDS011;31738;50.188;8.524;2022-08-19T12:45:43;6.75;;;5.85;;
46006;SDS011;31738;50.188;8.524;2022-08-19T12:48:10;6.93;;;5.93;;
46006;SDS011;31738;50.188;8.524;2022-08-19T12:50:35;6.70;;;5.97;;
46006;SDS011;31738;50.188;8.524;2022-08-19T12:53:03;6.03;;;5.53;;
46006;SDS011;31738;50.188;8.524;2022-08-19T12:55:29;6.25;;;5.57;;
46006;SDS011;31738;50.188;8.524;2022-08-19T12:57:55;6.10;;;5.50;;
46006;SDS011;31738;50.188;8.524;2022-08-19T13:00:21;6.70;;;5.82;;
46006;SDS011;31738;50.188;8.524;2022-08-19T13:02:49;6.53;;;5.60;;
46006;SDS011;31738;50.188;8.524;2022-08-19T13:05:17;9.48;;;5.75;;
46006;SDS011;31738;50.188;8.524;2022-08-19T13:07:46;5.78;;;5.25;;
46006;SDS011;31738;50.188;8.524;2022-08-19T13:10:12;6.00;;;5.32;;
46006;SDS011;31738;50.188;8.524;2022-08-19T13:12:41;9.57;;;5.75;;
46006;SDS011;31738;50.188;8.524;2022-08-19T13:15:07;8.85;;;5.50;;
46006;SDS011;31738;50.188;8.524;2022-08-19T13:17:34;5.82;;;5.28;;
46006;SDS011;31738;50.188;8.524;2022-08-19T13:20:00;6.47;;;5.15;;
46006;SDS011;31738;50.188;8.524;2022-08-19T13:22:26;5.60;;;5.10;;
46006;SDS011;31738;50.188;8.524;2022-08-19T13:24:52;5.60;;;4.72;;
46006;SDS011;31738;50.188;8.524;2022-08-19T13:27:17;7.25;;;4.47;;
46006;SDS011;31738;50.188;8.524;2022-08-19T13:29:43;4.70;;;4.30;;
46006;SDS011;31738;50.188;8.524;2022-08-19T13:32:47;5.05;;;4.53;;
46006;SDS011;31738;50.188;8.524;2022-08-19T13:35:32;4.70;;;4.20;;
46006;SDS011;31738;50.188;8.524;2022-08-19T13:37:57;7.53;;;4.55;;
46006;SDS011;31738;50.188;8.524;2022-08-19T13:40:23;5.05;;;4.60;;
46006;SDS011;31738;50.188;8.524;2022-08-19T13:42:52;4.68;;;4.15;;
46006;SDS011;31738;50.188;8.524;2022-08-19T13:45:21;6.53;;;4.50;;
46006;SDS011;31738;50.188;8.524;2022-08-19T13:47:50;4.70;;;4.20;;
46006;SDS011;31738;50.188;8.524;2022-08-19T13:50:18;4.78;;;4.30;;
46006;SDS011;31738;50.188;8.524;2022-08-19T13:52:45;6.07;;;4.07;;
46006;SDS011;31738;50.188;8.524;2022-08-19T13:55:13;5.15;;;4.53;;
46006;SDS011;31738;50.188;8.524;2022-08-19T13:57:39;5.18;;;4.15;;
46006;SDS011;31738;50.188;8.524;2022-08-19T14:00:06;5.15;;;4.28;;
46006;SDS011;31738;50.188;8.524;2022-08-19T14:02:35;5.60;;;4.32;;
46006;SDS011;31738;50.188;8.524;2022-08-19T14:05:03;4.97;;;4.50;;
46006;SDS011;31738;50.188;8.524;2022-08-19T14:07:30;5.72;;;4.35;;
46006;SDS011;31738;50.188;8.524;2022-08-19T14:09:57;4.80;;;4.30;;
46006;SDS011;31738;50.188;8.524;2022-08-19T14:12:22;4.88;;;4.20;;
46006;SDS011;31738;50.188;8.524;2022-08-19T14:14:48;6.68;;;4.68;;
46006;SDS011;31738;50.188;8.524;2022-08-19T14:17:14;4.47;;;4.07;;
46006;SDS011;31738;50.188;8.524;2022-08-19T14:19:40;6.50;;;4.30;;
46006;SDS011;31738;50.188;8.524;2022-08-19T14:22:06;5.63;;;4.28;;
46006;SDS011;31738;50.188;8.524;2022-08-19T14:24:32;8.48;;;4.95;;
46006;SDS011;31738;50.188;8.524;2022-08-19T14:26:58;7.47;;;4.78;;
46006;SDS011;31738;50.188;8.524;2022-08-19T14:29:24;5.50;;;4.82;;
46006;SDS011;31738;50.188;8.524;2022-08-19T14:31:50;5.35;;;4.80;;
46006;SDS011;31738;50.188;8.524;2022-08-19T14:34:15;5.43;;;4.50;;
46006;SDS011;31738;50.188;8.524;2022-08-19T14:36:40;6.43;;;4.70;;
46006;SDS011;31738;50.188;8.524;2022-08-19T14:39:06;4.50;;;4.10;;
46006;SDS011;31738;50.188;8.524;2022-08-19T14:41:33;4.55;;;4.15;;
46006;SDS011;31738;50.188;8.524;2022-08-19T14:43:59;4.30;;;3.90;;
46006;SDS011;31738;50.188;8.524;2022-08-19T14:46:26;4.40;;;3.90;;
46006;SDS011;31738;50.188;8.524;2022-08-19T14:48:53;4.03;;;3.63;;
46006;SDS011;31738;50.188;8.524;2022-08-19T14:51:20;5.32;;;4.05;;